createdAt,value
2018-06-03T00:00:09.734Z,20.01
2018-06-03T00:02:37.930Z,19.89
2018-06-03T00:05:06.117Z,19.87
2018-06-03T00:07:34.321Z,19.84
2018-06-03T00:10:02.537Z,19.76
2018-06-03T00:12:30.735Z,19.75
2018-06-03T00:14:58.894Z,19.70
2018-06-03T00:17:27.117Z,19.78
2018-06-03T00:19:55.284Z,19.73
2018-06-03T00:22:28.213Z,19.74
2018-06-03T00:24:56.430Z,19.68
2018-06-03T00:27:24.703Z,19.71
2018-06-03T00:29:52.874Z,19.75
2018-06-03T00:32:21.083Z,19.81
2018-06-03T00:34:49.245Z,19.81
2018-06-03T00:37:17.463Z,19.86
2018-06-03T00:39:45.670Z,19.81
2018-06-03T00:42:13.910Z,19.77
2018-06-03T00:44:42.086Z,19.78
2018-06-03T00:47:10.268Z,19.79
2018-06-03T00:49:38.483Z,19.77
2018-06-03T00:52:06.676Z,19.78
2018-06-03T00:54:34.883Z,19.78
2018-06-03T00:57:09.839Z,19.78
2018-06-03T00:59:38.574Z,19.81
2018-06-03T01:02:06.755Z,19.79
2018-06-03T01:04:34.978Z,19.77
2018-06-03T01:07:03.140Z,19.77
2018-06-03T01:09:31.382Z,19.80
2018-06-03T01:11:59.558Z,19.79
2018-06-03T01:14:27.825Z,19.77
2018-06-03T01:16:56.007Z,19.73
2018-06-03T01:19:24.251Z,19.76
2018-06-03T01:21:52.439Z,19.76
2018-06-03T01:24:20.638Z,19.77
2018-06-03T01:26:48.803Z,19.79
2018-06-03T01:29:16.984Z,19.79
2018-06-03T01:31:45.209Z,19.79
2018-06-03T01:34:13.389Z,19.79
2018-06-03T01:36:41.613Z,19.77
2018-06-03T01:39:09.811Z,19.79
2018-06-03T01:41:38.042Z,19.80
2018-06-03T01:44:06.222Z,19.79
2018-06-03T01:46:34.420Z,19.81
2018-06-03T01:49:02.600Z,19.82
2018-06-03T01:51:30.813Z,19.84
2018-06-03T01:53:59.000Z,19.81
2018-06-03T01:56:27.204Z,19.82
2018-06-03T01:58:55.427Z,19.80
2018-06-03T02:01:23.638Z,19.77
2018-06-03T02:03:51.821Z,19.76
2018-06-03T02:06:20.000Z,19.74
2018-06-03T02:08:48.221Z,19.73
2018-06-03T02:11:16.433Z,19.70
2018-06-03T02:13:44.620Z,19.67
2018-06-03T02:16:12.823Z,19.65
2018-06-03T02:18:41.019Z,19.61
2018-06-03T02:21:09.184Z,19.60
2018-06-03T02:23:37.390Z,19.57
2018-06-03T02:26:05.595Z,19.53
2018-06-03T02:28:33.808Z,19.47
2018-06-03T02:31:02.003Z,19.39
2018-06-03T02:33:30.181Z,19.32
2018-06-03T02:35:58.337Z,19.29
2018-06-03T02:38:26.522Z,19.30
2018-06-03T02:40:54.702Z,19.27
2018-06-03T02:43:22.918Z,19.26
2018-06-03T02:45:51.095Z,19.23
2018-06-03T02:48:34.112Z,19.23
2018-06-03T02:51:05.300Z,19.26
2018-06-03T02:53:33.497Z,19.25
2018-06-03T02:56:01.670Z,19.25
2018-06-03T02:58:29.868Z,19.25
2018-06-03T03:00:58.085Z,19.26
2018-06-03T03:03:26.285Z,19.26
2018-06-03T03:05:54.449Z,19.28
2018-06-03T03:08:22.604Z,19.27
2018-06-03T03:10:50.801Z,19.27
2018-06-03T03:13:18.995Z,19.27
2018-06-03T03:15:47.246Z,19.23
2018-06-03T03:18:15.462Z,19.22
2018-06-03T03:20:43.653Z,19.20
2018-06-03T03:23:11.855Z,19.16
2018-06-03T03:25:40.036Z,19.10
2018-06-03T03:28:08.237Z,19.06
2018-06-03T03:30:36.407Z,19.06
2018-06-03T03:33:04.597Z,19.02
2018-06-03T03:35:32.792Z,18.99
2018-06-03T03:38:00.997Z,18.95
2018-06-03T03:40:29.174Z,18.93
2018-06-03T03:42:57.384Z,18.93
2018-06-03T03:45:25.547Z,18.92
2018-06-03T03:47:53.767Z,18.89
2018-06-03T03:50:21.938Z,18.88
2018-06-03T03:52:50.147Z,18.85
2018-06-03T03:55:18.347Z,18.84
2018-06-03T03:57:46.560Z,18.82
2018-06-03T04:00:14.758Z,18.78
2018-06-03T04:02:42.947Z,18.79
2018-06-03T04:05:11.199Z,18.79
2018-06-03T04:07:39.458Z,18.80
2018-06-03T04:10:07.624Z,18.83
2018-06-03T04:12:35.791Z,18.85
2018-06-03T04:15:03.986Z,18.90
2018-06-03T04:17:32.157Z,18.91
2018-06-03T04:20:00.356Z,18.92
2018-06-03T04:22:28.526Z,18.92
2018-06-03T04:24:56.723Z,18.96
2018-06-03T04:27:24.905Z,19.02
2018-06-03T04:29:53.124Z,19.06
2018-06-03T04:32:21.327Z,19.09
2018-06-03T04:34:49.511Z,19.11
2018-06-03T04:37:17.691Z,19.12
2018-06-03T04:39:45.879Z,19.11
2018-06-03T04:42:14.089Z,19.10
2018-06-03T04:44:42.253Z,19.06
2018-06-03T04:47:10.449Z,19.07
2018-06-03T04:49:38.635Z,19.11
2018-06-03T04:52:06.843Z,19.13
2018-06-03T04:54:35.044Z,19.20
2018-06-03T04:57:03.260Z,19.25
2018-06-03T04:59:31.436Z,19.26
2018-06-03T05:01:59.643Z,19.32
2018-06-03T05:04:27.804Z,19.33
2018-06-03T05:06:56.018Z,19.35
2018-06-03T05:09:24.201Z,19.39
2018-06-03T05:11:52.412Z,19.38
2018-06-03T05:14:20.618Z,19.41
2018-06-03T05:16:48.792Z,19.40
2018-06-03T05:19:16.997Z,19.48
2018-06-03T05:21:45.154Z,19.49
2018-06-03T05:24:13.379Z,19.53
2018-06-03T05:26:41.538Z,19.53
2018-06-03T05:29:09.738Z,19.54
2018-06-03T05:31:37.923Z,19.67
2018-06-03T05:34:06.095Z,19.81
2018-06-03T05:36:34.307Z,19.89
2018-06-03T05:39:02.479Z,19.95
2018-06-03T05:41:30.687Z,19.95
2018-06-03T05:43:58.890Z,19.94
2018-06-03T05:46:27.095Z,19.91
2018-06-03T05:48:55.276Z,19.90
2018-06-03T05:51:23.456Z,19.91
2018-06-03T05:53:51.643Z,20.00
2018-06-03T05:56:19.832Z,20.07
2018-06-03T05:58:48.021Z,20.09
2018-06-03T06:01:16.196Z,20.14
2018-06-03T06:03:44.410Z,20.19
2018-06-03T06:06:12.605Z,20.24
2018-06-03T06:08:40.825Z,20.23
2018-06-03T06:11:09.000Z,20.19
2018-06-03T06:13:37.182Z,20.17
2018-06-03T06:16:05.387Z,20.20
2018-06-03T06:18:33.566Z,20.19
2018-06-03T06:21:01.774Z,20.21
2018-06-03T06:23:29.968Z,20.22
2018-06-03T06:25:58.137Z,20.31
2018-06-03T06:28:26.318Z,20.40
2018-06-03T06:30:54.588Z,20.50
2018-06-03T06:33:22.781Z,20.65
2018-06-03T06:35:50.981Z,20.84
2018-06-03T06:38:19.145Z,21.01
2018-06-03T06:41:01.316Z,21.11
2018-06-03T06:43:31.736Z,21.26
2018-06-03T06:45:59.944Z,21.48
2018-06-03T06:48:28.104Z,21.62
2018-06-03T06:50:56.309Z,21.71
2018-06-03T06:53:24.525Z,21.67
2018-06-03T06:55:52.698Z,21.57
2018-06-03T06:58:20.904Z,21.52
2018-06-03T07:00:49.138Z,21.42
2018-06-03T07:03:17.369Z,21.30
2018-06-03T07:05:45.936Z,21.33
2018-06-03T07:08:14.539Z,21.21
2018-06-03T07:10:45.103Z,21.10
2018-06-03T07:13:14.419Z,21.06
2018-06-03T07:15:43.091Z,21.10
2018-06-03T07:18:11.772Z,21.16
2018-06-03T07:20:40.447Z,21.23
2018-06-03T07:23:09.868Z,21.19
2018-06-03T07:25:38.410Z,21.17
2018-06-03T07:28:07.126Z,21.27
2018-06-03T07:30:36.124Z,21.41
2018-06-03T07:33:04.914Z,21.44
2018-06-03T07:35:33.388Z,21.53
2018-06-03T07:38:01.993Z,21.72
2018-06-03T07:40:31.555Z,21.83
2018-06-03T07:43:00.147Z,21.97
2018-06-03T07:45:28.615Z,21.98
2018-06-03T07:47:57.237Z,22.15
2018-06-03T07:50:25.942Z,22.19
2018-06-03T07:52:54.490Z,22.21
2018-06-03T07:55:23.421Z,22.29
2018-06-03T07:57:51.768Z,22.41
2018-06-03T08:00:20.501Z,22.59
2018-06-03T08:02:49.142Z,22.76
2018-06-03T08:05:17.828Z,22.90
2018-06-03T08:07:46.363Z,22.89
2018-06-03T08:10:15.647Z,23.02
2018-06-03T08:12:44.356Z,22.99
2018-06-03T08:15:13.084Z,23.02
2018-06-03T08:17:41.650Z,22.97
2018-06-03T08:20:10.165Z,22.96
2018-06-03T08:22:38.735Z,22.80
2018-06-03T08:25:07.312Z,22.79
2018-06-03T08:27:36.385Z,22.79
2018-06-03T08:30:04.983Z,22.74
2018-06-03T08:32:33.572Z,22.87
2018-06-03T08:35:02.322Z,23.01
2018-06-03T08:37:30.836Z,23.03
2018-06-03T08:39:59.426Z,23.08
2018-06-03T08:42:28.047Z,23.12
2018-06-03T08:45:28.662Z,22.70
2018-06-03T08:47:59.559Z,22.71
2018-06-03T08:50:29.724Z,22.67
2018-06-03T08:52:59.968Z,22.56
2018-06-03T08:55:29.728Z,22.53
2018-06-03T08:57:59.184Z,22.39
2018-06-03T09:00:28.919Z,22.52
2018-06-03T09:02:59.433Z,22.66
2018-06-03T09:05:29.182Z,22.77
2018-06-03T09:07:58.291Z,22.69
2018-06-03T09:10:27.744Z,22.57
2018-06-03T09:12:56.829Z,22.63
2018-06-03T09:15:26.067Z,22.61
2018-06-03T09:17:55.177Z,22.50
2018-06-03T09:20:24.280Z,22.61
2018-06-03T09:22:53.426Z,22.70
2018-06-03T09:25:28.849Z,22.77
2018-06-03T09:27:57.978Z,22.85
2018-06-03T09:30:33.723Z,22.70
2018-06-03T09:33:02.903Z,22.96
2018-06-03T09:35:32.020Z,23.25
2018-06-03T09:38:01.117Z,23.63
2018-06-03T09:40:30.287Z,23.31
2018-06-03T09:42:59.406Z,23.28
2018-06-03T09:45:29.132Z,23.53
2018-06-03T09:47:59.157Z,23.80
2018-06-03T09:50:28.866Z,24.24
2018-06-03T09:53:11.558Z,24.25
2018-06-03T09:55:57.236Z,24.06
2018-06-03T09:58:35.462Z,24.05
2018-06-03T10:01:09.438Z,24.13
2018-06-03T10:03:39.164Z,24.26
2018-06-03T10:06:08.392Z,24.49
2018-06-03T10:08:37.539Z,24.24
2018-06-03T10:11:07.009Z,24.44
2018-06-03T10:13:36.164Z,24.71
2018-06-03T10:16:12.110Z,24.63
2018-06-03T10:18:41.154Z,24.61
2018-06-03T10:21:10.283Z,24.86
2018-06-03T10:23:39.432Z,25.05
2018-06-03T10:26:09.039Z,24.64
2018-06-03T10:28:38.183Z,24.17
2018-06-03T10:31:07.332Z,24.20
2018-06-03T10:33:43.205Z,24.15
2018-06-03T10:36:12.307Z,24.01
2018-06-03T10:38:41.657Z,24.04
2018-06-03T10:41:10.780Z,24.23
2018-06-03T10:43:40.026Z,24.35
2018-06-03T10:46:09.352Z,24.24
2018-06-03T10:48:38.474Z,24.31
2018-06-03T10:51:07.760Z,24.06
2018-06-03T10:53:36.898Z,24.05
2018-06-03T10:56:06.062Z,24.10
2018-06-03T10:58:35.181Z,24.21
2018-06-03T11:01:04.283Z,24.09
2018-06-03T11:03:33.373Z,24.08
2018-06-03T11:06:02.519Z,24.21
2018-06-03T11:08:31.653Z,24.32
2018-06-03T11:11:00.791Z,24.39
2018-06-03T11:13:29.883Z,24.45
2018-06-03T11:15:59.051Z,24.30
2018-06-03T11:18:28.157Z,24.47
2018-06-03T11:20:57.310Z,24.50
2018-06-03T11:23:26.417Z,24.66
2018-06-03T11:25:55.556Z,24.89
2018-06-03T11:28:24.682Z,25.16
2018-06-03T11:30:53.784Z,25.14
2018-06-03T11:33:22.938Z,25.02
2018-06-03T11:35:52.053Z,25.03
2018-06-03T11:38:21.263Z,24.99
2018-06-03T11:40:50.411Z,24.77
2018-06-03T11:43:19.496Z,24.88
2018-06-03T11:45:48.808Z,25.15
2018-06-03T11:48:17.967Z,25.43
2018-06-03T11:50:53.452Z,25.59
2018-06-03T11:53:22.592Z,25.40
2018-06-03T11:55:51.730Z,25.64
2018-06-03T11:58:41.042Z,26.17
2018-06-03T12:01:10.482Z,26.39
2018-06-03T12:03:39.592Z,26.38
2018-06-03T12:06:08.732Z,26.68
2018-06-03T12:08:37.891Z,27.15
2018-06-03T12:11:06.977Z,27.09
2018-06-03T12:13:36.775Z,27.62
2018-06-03T12:16:06.045Z,27.77
2018-06-03T12:18:35.187Z,27.98
2018-06-03T12:21:04.297Z,27.61
2018-06-03T12:23:33.425Z,27.94
2018-06-03T12:26:02.568Z,27.86
2018-06-03T12:28:31.687Z,28.22
2018-06-03T12:31:00.868Z,28.45
2018-06-03T12:33:29.960Z,28.73
2018-06-03T12:35:59.089Z,29.15
2018-06-03T12:38:28.211Z,29.73
2018-06-03T12:40:57.301Z,29.75
2018-06-03T12:43:26.439Z,30.44
2018-06-03T12:45:55.525Z,30.34
2018-06-03T12:48:24.628Z,30.39
2018-06-03T12:50:53.774Z,30.84
2018-06-03T12:53:22.882Z,30.95
2018-06-03T12:55:52.083Z,30.66
2018-06-03T12:58:21.193Z,30.20
2018-06-03T13:00:50.291Z,30.69
2018-06-03T13:03:19.358Z,30.61
2018-06-03T13:05:48.454Z,30.23
2018-06-03T13:08:17.677Z,30.12
2018-06-03T13:10:46.853Z,29.87
2018-06-03T13:13:15.958Z,29.53
2018-06-03T13:15:45.126Z,29.06
2018-06-03T13:18:14.229Z,28.56
2018-06-03T13:20:43.421Z,28.01
2018-06-03T13:23:12.540Z,27.87
2018-06-03T13:25:41.670Z,27.71
2018-06-03T13:28:10.814Z,27.30
2018-06-03T13:30:39.906Z,27.15
2018-06-03T13:33:09.043Z,27.14
2018-06-03T13:35:38.154Z,27.08
2018-06-03T13:38:07.303Z,27.04
2018-06-03T13:40:36.443Z,26.94
2018-06-03T13:43:05.551Z,26.79
2018-06-03T13:45:34.647Z,26.90
2018-06-03T13:48:03.843Z,27.20
2018-06-03T13:50:33.016Z,27.39
2018-06-03T13:53:02.236Z,27.62
2018-06-03T13:55:31.344Z,27.74
2018-06-03T13:58:00.498Z,27.99
2018-06-03T14:00:29.605Z,28.11
2018-06-03T14:02:58.692Z,28.28
2018-06-03T14:05:27.971Z,28.34
2018-06-03T14:07:57.117Z,28.42
2018-06-03T14:10:26.233Z,28.47
2018-06-03T14:12:55.303Z,28.40
2018-06-03T14:15:24.455Z,28.59
2018-06-03T14:17:53.595Z,28.34
2018-06-03T14:20:22.726Z,28.69
2018-06-03T14:22:51.825Z,29.11
2018-06-03T14:25:21.005Z,29.56
2018-06-03T14:27:50.177Z,30.20
2018-06-03T14:30:19.325Z,30.62
2018-06-03T14:32:48.420Z,30.82
2018-06-03T14:35:17.566Z,30.68
2018-06-03T14:37:47.689Z,30.69
2018-06-03T14:40:16.803Z,30.96
2018-06-03T14:42:45.875Z,31.17
2018-06-03T14:45:15.000Z,31.52
2018-06-03T14:47:44.097Z,32.02
2018-06-03T14:50:13.242Z,32.07
2018-06-03T14:52:42.340Z,31.85
2018-06-03T14:55:11.496Z,31.83
2018-06-03T14:57:40.608Z,31.84
2018-06-03T15:00:09.675Z,31.65
2018-06-03T15:02:38.782Z,31.44
2018-06-03T15:05:07.988Z,31.33
2018-06-03T15:07:37.134Z,31.55
2018-06-03T15:10:06.501Z,31.69
2018-06-03T15:12:35.600Z,31.85
2018-06-03T15:15:04.826Z,31.66
2018-06-03T15:17:34.387Z,31.70
2018-06-03T15:20:03.580Z,31.73
2018-06-03T15:22:32.710Z,31.43
2018-06-03T15:25:01.840Z,31.18
2018-06-03T15:27:30.957Z,30.74
2018-06-03T15:30:00.051Z,30.36
2018-06-03T15:32:29.183Z,30.01
2018-06-03T15:34:58.280Z,29.77
2018-06-03T15:37:27.420Z,29.76
2018-06-03T15:39:56.503Z,29.68
2018-06-03T15:42:25.649Z,29.73
2018-06-03T15:44:54.799Z,29.59
2018-06-03T15:47:24.489Z,29.46
2018-06-03T15:49:53.720Z,29.33
2018-06-03T15:52:22.884Z,29.23
2018-06-03T15:54:52.355Z,29.13
2018-06-03T15:57:21.815Z,28.84
2018-06-03T15:59:51.452Z,28.56
2018-06-03T16:02:20.855Z,28.18
2018-06-03T16:04:50.649Z,28.02
2018-06-03T16:07:20.075Z,28.06
2018-06-03T16:09:49.587Z,27.99
2018-06-03T16:12:19.048Z,27.95
2018-06-03T16:14:48.485Z,27.85
2018-06-03T16:17:17.932Z,27.80
2018-06-03T16:19:47.391Z,27.72
2018-06-03T16:22:16.893Z,27.55
2018-06-03T16:24:46.390Z,27.40
2018-06-03T16:27:15.808Z,27.23
2018-06-03T16:29:45.345Z,27.09
2018-06-03T16:32:14.853Z,27.16
2018-06-03T16:34:44.323Z,27.12
2018-06-03T16:37:13.827Z,27.02
2018-06-03T16:39:42.977Z,26.96
2018-06-03T16:42:14.598Z,26.97
2018-06-03T16:44:43.765Z,27.00
2018-06-03T16:47:12.864Z,27.00
2018-06-03T16:49:42.011Z,26.95
2018-06-03T16:52:11.125Z,26.89
2018-06-03T16:54:40.268Z,26.74
2018-06-03T16:57:09.422Z,26.74
2018-06-03T16:59:38.611Z,26.59
2018-06-03T17:02:07.766Z,26.40
2018-06-03T17:04:36.904Z,26.34
2018-06-03T17:07:06.243Z,26.32
2018-06-03T17:09:36.732Z,26.27
2018-06-03T17:12:05.862Z,26.31
2018-06-03T17:14:35.083Z,26.30
2018-06-03T17:17:04.335Z,26.27
2018-06-03T17:19:33.497Z,26.26
2018-06-03T17:22:07.374Z,26.24
2018-06-03T17:24:36.512Z,26.18
2018-06-03T17:27:06.986Z,26.19
2018-06-03T17:29:36.115Z,26.10
2018-06-03T17:32:05.266Z,26.12
2018-06-03T17:34:34.394Z,26.02
2018-06-03T17:37:03.698Z,25.94
2018-06-03T17:39:32.811Z,25.91
2018-06-03T17:42:01.977Z,25.90
2018-06-03T17:44:31.087Z,25.88
2018-06-03T17:47:00.222Z,25.85
2018-06-03T17:49:29.377Z,25.89
2018-06-03T17:51:58.553Z,25.77
2018-06-03T17:54:28.336Z,25.71
2018-06-03T17:56:57.470Z,25.62
2018-06-03T17:59:26.588Z,25.61
2018-06-03T18:01:55.758Z,25.58
2018-06-03T18:04:24.910Z,25.57
2018-06-03T18:06:54.025Z,25.53
2018-06-03T18:09:24.934Z,25.47
2018-06-03T18:11:54.023Z,25.43
2018-06-03T18:14:23.163Z,25.38
2018-06-03T18:16:52.536Z,25.34
2018-06-03T18:19:21.650Z,25.30
2018-06-03T18:21:50.766Z,25.25
2018-06-03T18:24:19.897Z,25.24
2018-06-03T18:26:49.038Z,25.22
2018-06-03T18:29:18.152Z,25.26
2018-06-03T18:31:47.243Z,25.12
2018-06-03T18:34:16.379Z,25.10
2018-06-03T18:36:45.469Z,25.03
2018-06-03T18:39:14.595Z,24.91
2018-06-03T18:41:43.755Z,24.87
2018-06-03T18:44:12.883Z,24.83
2018-06-03T18:46:41.982Z,24.78
2018-06-03T18:49:11.143Z,24.70
2018-06-03T18:51:40.267Z,24.67
2018-06-03T18:54:09.432Z,24.61
2018-06-03T18:56:38.538Z,24.58
2018-06-03T18:59:07.630Z,24.58
2018-06-03T19:01:36.807Z,24.52
2018-06-03T19:04:06.025Z,24.46
2018-06-03T19:06:35.126Z,24.40
2018-06-03T19:09:06.763Z,24.37
2018-06-03T19:11:36.054Z,24.34
2018-06-03T19:14:05.231Z,24.28
2018-06-03T19:16:34.330Z,24.26
2018-06-03T19:19:03.522Z,24.19
2018-06-03T19:21:32.638Z,24.10
2018-06-03T19:24:01.769Z,24.07
2018-06-03T19:26:30.899Z,24.01
2018-06-03T19:29:00.036Z,24.01
2018-06-03T19:31:29.132Z,23.95
2018-06-03T19:33:58.285Z,23.89
2018-06-03T19:36:27.391Z,23.81
2018-06-03T19:38:56.518Z,23.72
2018-06-03T19:41:26.687Z,23.69
2018-06-03T19:43:55.796Z,23.65
2018-06-03T19:46:24.994Z,23.63
2018-06-03T19:48:54.169Z,23.59
2018-06-03T19:51:23.614Z,23.52
2018-06-03T19:53:52.733Z,23.49
2018-06-03T19:56:21.877Z,23.44
2018-06-03T19:58:51.677Z,23.39
2018-06-03T20:01:20.759Z,23.36
2018-06-03T20:03:49.929Z,23.30
2018-06-03T20:06:19.106Z,23.26
2018-06-03T20:08:48.261Z,23.18
2018-06-03T20:11:17.543Z,23.12
2018-06-03T20:13:46.688Z,23.09
2018-06-03T20:16:15.834Z,23.05
2018-06-03T20:18:45.054Z,23.01
2018-06-03T20:21:14.203Z,22.99
2018-06-03T20:23:43.304Z,22.95
2018-06-03T20:26:12.441Z,22.94
2018-06-03T20:28:41.569Z,22.91
2018-06-03T20:31:10.693Z,22.86
2018-06-03T20:33:39.831Z,22.81
2018-06-03T20:36:09.003Z,22.80
2018-06-03T20:38:38.139Z,22.72
2018-06-03T20:41:07.329Z,22.67
2018-06-03T20:43:36.459Z,22.61
2018-06-03T20:46:05.696Z,22.56
2018-06-03T20:48:34.784Z,22.52
2018-06-03T20:51:03.929Z,22.52
2018-06-03T20:53:33.340Z,22.53
2018-06-03T20:56:02.494Z,22.47
2018-06-03T20:58:31.609Z,22.43
2018-06-03T21:01:00.795Z,22.41
2018-06-03T21:03:29.914Z,22.36
2018-06-03T21:05:59.075Z,22.33
2018-06-03T21:08:28.302Z,22.31
2018-06-03T21:10:57.395Z,22.29
2018-06-03T21:13:26.522Z,22.27
2018-06-03T21:15:55.633Z,22.23
2018-06-03T21:18:24.797Z,22.20
2018-06-03T21:20:53.914Z,22.18
2018-06-03T21:23:23.073Z,22.14
2018-06-03T21:25:52.267Z,22.15
2018-06-03T21:28:21.381Z,22.13
2018-06-03T21:30:50.634Z,22.13
2018-06-03T21:33:19.796Z,22.13
2018-06-03T21:35:48.914Z,22.09
2018-06-03T21:38:18.038Z,22.09
2018-06-03T21:40:47.255Z,22.04
2018-06-03T21:43:16.566Z,22.07
2018-06-03T21:45:45.651Z,22.01
2018-06-03T21:48:14.776Z,21.97
2018-06-03T21:50:44.212Z,21.95
2018-06-03T21:53:13.377Z,21.84
2018-06-03T21:55:42.798Z,21.86
2018-06-03T21:58:11.916Z,21.81
2018-06-03T22:00:41.345Z,21.75
2018-06-03T22:03:10.485Z,21.74
2018-06-03T22:05:39.647Z,21.72
2018-06-03T22:08:08.837Z,21.72
2018-06-03T22:10:38.000Z,21.68
2018-06-03T22:13:07.137Z,21.68
2018-06-03T22:15:36.305Z,21.66
2018-06-03T22:18:05.808Z,21.62
2018-06-03T22:20:35.622Z,21.58
2018-06-03T22:23:04.836Z,21.54
2018-06-03T22:25:34.041Z,21.51
2018-06-03T22:28:03.146Z,21.47
2018-06-03T22:30:33.541Z,21.48
2018-06-03T22:33:02.711Z,21.45
2018-06-03T22:35:31.858Z,21.41
2018-06-03T22:38:01.149Z,21.38
2018-06-03T22:40:30.291Z,21.36
2018-06-03T22:42:59.466Z,21.29
2018-06-03T22:45:28.542Z,21.25
2018-06-03T22:47:57.672Z,21.24
2018-06-03T22:50:26.799Z,21.20
2018-06-03T22:52:55.956Z,21.19
2018-06-03T22:55:25.136Z,21.21
2018-06-03T22:57:55.101Z,21.17
2018-06-03T23:00:29.963Z,21.16
2018-06-03T23:03:04.377Z,21.15
2018-06-03T23:05:33.642Z,21.16
2018-06-03T23:08:02.824Z,21.13
2018-06-03T23:10:31.937Z,21.05
2018-06-03T23:13:01.125Z,21.05
2018-06-03T23:15:30.291Z,21.01
2018-06-03T23:17:59.573Z,20.98
2018-06-03T23:20:28.671Z,20.99
2018-06-03T23:22:57.926Z,20.96
2018-06-03T23:25:27.084Z,20.92
2018-06-03T23:27:56.470Z,20.92
2018-06-03T23:30:25.651Z,20.87
2018-06-03T23:32:55.024Z,20.82
2018-06-03T23:35:24.170Z,20.87
2018-06-03T23:37:53.345Z,20.87
2018-06-03T23:40:22.421Z,20.83
2018-06-03T23:42:51.574Z,20.82
2018-06-03T23:45:20.656Z,20.81
2018-06-03T23:47:49.765Z,20.76
2018-06-03T23:50:18.889Z,20.76
2018-06-03T23:52:48.000Z,20.74
2018-06-03T23:55:17.135Z,20.73
2018-06-03T23:57:46.245Z,20.66
